Time,TemperatureF,DewpointF,PressureIn,WindDirection,WindDirectionDegrees,WindSpeedMPH,WindSpeedGustMPH,Humidity,HourlyPrecipIn,Conditions,Clouds,dailyrainin,SoftwareType,DateUTC
2013-02-14 00:00:00,31.6,17.3,29.73,South,175,0.0,0.0,55,0.00,,,0.00,VWS V14.00,2013-02-14 05:00:00,
2013-02-14 00:15:00,30.7,16.5,29.73,South,175,0.0,0.0,55,0.00,,,0.00,VWS V14.00,2013-02-14 05:15:00,
2013-02-14 00:30:00,31.3,17.4,29.76,South,175,0.0,0.0,56,0.00,,,0.00,VWS V14.00,2013-02-14 05:30:00,
2013-02-14 00:45:00,30.9,17.1,29.76,South,175,0.0,0.0,56,0.00,,,0.00,VWS V14.00,2013-02-14 05:45:00,
2013-02-14 01:00:00,30.7,17.3,29.76,South,175,0.0,0.0,57,0.00,,,0.00,VWS V14.00,2013-02-14 06:00:00,
2013-02-14 01:15:00,30.7,17.3,29.76,South,175,0.0,0.0,57,0.00,,,0.00,VWS V14.00,2013-02-14 06:15:00,
2013-02-14 01:30:00,30.0,17.0,29.76,South,175,0.0,0.0,58,0.00,,,0.00,VWS V14.00,2013-02-14 06:30:00,
2013-02-14 01:45:00,30.4,18.6,29.79,South,175,0.0,0.0,61,0.00,,,0.00,VWS V14.00,2013-02-14 06:45:00,
2013-02-14 02:00:00,31.5,20.0,29.79,South,175,0.0,0.0,62,0.00,,,0.00,VWS V14.00,2013-02-14 07:00:00,
2013-02-14 02:15:00,32.2,21.0,29.82,South,175,0.0,0.0,63,0.00,,,0.00,VWS V14.00,2013-02-14 07:15:00,
2013-02-14 02:30:00,32.5,21.4,29.82,South,175,0.0,0.0,63,0.00,,,0.00,VWS V14.00,2013-02-14 07:30:00,
2013-02-14 02:45:00,32.9,22.1,29.82,South,175,0.0,0.0,64,0.00,,,0.00,VWS V14.00,2013-02-14 07:45:00,
2013-02-14 03:00:00,32.9,22.1,29.82,South,175,0.0,0.0,64,0.00,,,0.00,VWS V14.00,2013-02-14 08:00:00,
2013-02-14 03:15:00,33.1,22.2,29.82,South,175,0.0,0.0,64,0.00,,,0.00,VWS V14.00,2013-02-14 08:15:00,
2013-02-14 03:30:00,33.1,22.6,29.82,South,175,0.0,0.0,65,0.00,,,0.00,VWS V14.00,2013-02-14 08:30:00,
2013-02-14 03:45:00,33.1,22.6,29.82,South,175,0.0,0.0,65,0.00,,,0.00,VWS V14.00,2013-02-14 08:45:00,
2013-02-14 04:00:00,32.2,21.4,29.82,South,175,0.0,0.0,64,0.00,,,0.00,VWS V14.00,2013-02-14 09:00:00,
2013-02-14 04:15:00,31.1,20.0,29.85,South,175,0.0,0.0,63,0.00,,,0.00,VWS V14.00,2013-02-14 09:15:00,
2013-02-14 04:30:00,30.2,19.5,29.85,South,175,0.0,0.0,64,0.00,,,0.00,VWS V14.00,2013-02-14 09:30:00,
2013-02-14 04:45:00,28.9,17.9,29.85,South,175,0.0,0.0,63,0.00,,,0.00,VWS V14.00,2013-02-14 09:45:00,
2013-02-14 05:00:00,28.8,17.8,29.85,South,175,0.0,0.0,63,0.00,,,0.00,VWS V14.00,2013-02-14 10:00:00,
2013-02-14 05:15:00,28.6,18.3,29.88,South,175,0.0,0.0,65,0.00,,,0.00,VWS V14.00,2013-02-14 10:15:00,
2013-02-14 05:30:00,29.3,19.4,29.88,South,175,0.0,0.0,66,0.00,,,0.00,VWS V14.00,2013-02-14 10:30:00,
2013-02-14 05:45:00,28.2,18.3,29.88,South,175,0.0,0.0,66,0.00,,,0.00,VWS V14.00,2013-02-14 10:45:00,
2013-02-14 06:00:00,28.2,18.7,29.88,South,175,0.0,0.0,67,0.00,,,0.00,VWS V14.00,2013-02-14 11:00:00,
2013-02-14 06:15:00,29.1,20.2,29.88,South,175,0.0,0.0,69,0.00,,,0.00,VWS V14.00,2013-02-14 11:15:00,
2013-02-14 06:30:00,29.3,20.1,29.91,South,175,0.0,0.0,68,0.00,,,0.00,VWS V14.00,2013-02-14 11:30:00,
2013-02-14 06:45:00,29.8,21.3,29.91,South,175,0.0,0.0,70,0.00,,,0.00,VWS V14.00,2013-02-14 11:45:00,
2013-02-14 07:01:00,30.2,21.6,29.94,South,175,0.0,0.0,70,0.00,,,0.00,VWS V14.00,2013-02-14 12:01:00,
2013-02-14 07:16:00,29.5,19.9,29.94,South,175,0.0,0.0,67,0.00,,,0.00,VWS V14.00,2013-02-14 12:16:00,
2013-02-14 07:45:00,27.7,17.5,29.94,South,175,0.0,0.0,65,0.00,,,0.00,VWS V14.00,2013-02-14 12:45:00,
2013-02-14 08:00:00,27.9,17.6,29.97,South,175,0.0,0.0,65,0.00,,,0.00,VWS V14.00,2013-02-14 13:00:00,
2013-02-14 08:15:00,27.1,15.1,29.97,South,175,0.0,0.0,60,0.00,,,0.00,VWS V14.00,2013-02-14 13:15:00,
2013-02-14 08:30:00,29.5,18.5,29.97,South,175,0.0,0.0,63,0.00,,,0.00,VWS V14.00,2013-02-14 13:30:00,
2013-02-14 08:45:00,28.9,14.4,29.97,South,175,0.0,0.0,54,0.00,,,0.00,VWS V14.00,2013-02-14 13:45:00,
2013-02-14 09:00:00,34.2,20.9,29.97,South,175,0.0,0.0,58,0.00,,,0.00,VWS V14.00,2013-02-14 14:00:00,
2013-02-14 09:15:00,35.1,16.4,29.97,South,175,0.0,0.0,46,0.00,,,0.00,VWS V14.00,2013-02-14 14:15:00,
2013-02-14 09:30:00,37.4,15.3,29.97,South,175,0.0,0.0,40,0.00,,,0.00,VWS V14.00,2013-02-14 14:30:00,
2013-02-14 09:45:00,38.7,13.4,29.97,SW,217,0.0,5.6,35,0.00,,,0.00,VWS V14.00,2013-02-14 14:45:00,
2013-02-14 10:00:00,39.7,11.6,29.97,SSW,208,0.0,4.7,31,0.00,,,0.00,VWS V14.00,2013-02-14 15:00:00,
2013-02-14 10:15:00,39.9,10.2,29.97,South,186,3.6,4.7,29,0.00,,,0.00,VWS V14.00,2013-02-14 15:15:00,
2013-02-14 10:31:00,38.7,9.2,29.97,SE,137,0.0,4.7,29,0.00,,,0.00,VWS V14.00,2013-02-14 15:31:00,
2013-02-14 10:45:00,41.7,11.8,29.97,South,182,0.0,5.1,29,0.00,,,0.00,VWS V14.00,2013-02-14 15:45:00,
2013-02-14 11:00:00,41.4,10.7,29.97,South,178,0.0,3.6,28,0.00,,CLR,0.00,VWS V14.00,2013-02-14 16:00:00,
2013-02-14 11:15:00,43.3,9.9,29.97,South,178,0.0,4.5,25,0.00,,CLR,0.00,VWS V14.00,2013-02-14 16:15:00,
2013-02-14 11:30:00,45.3,11.6,29.97,South,178,0.0,0.0,25,0.00,,CLR,0.00,VWS V14.00,2013-02-14 16:30:00,
2013-02-14 11:45:00,43.9,10.4,29.97,SSW,205,0.0,5.1,25,0.00,,SCT022,0.00,VWS V14.00,2013-02-14 16:45:00,
2013-02-14 12:00:00,41.9,9.5,29.97,SW,233,0.0,5.6,26,0.00,,SCT022,0.00,VWS V14.00,2013-02-14 17:00:00,
2013-02-14 12:15:00,43.0,9.6,29.97,WNW,291,4.5,4.7,25,0.00,,SCT022,0.00,VWS V14.00,2013-02-14 17:15:00,
2013-02-14 12:30:00,43.3,9.9,29.94,WNW,282,3.6,6.5,25,0.00,,SCT022,0.00,VWS V14.00,2013-02-14 17:30:00,
2013-02-14 12:45:00,43.7,10.2,29.94,West,259,0.0,6.0,25,0.00,,CLR,0.00,VWS V14.00,2013-02-14 17:45:00,
2013-02-14 13:00:00,44.4,10.8,29.94,South,174,3.6,6.9,25,0.00,,CLR,0.00,VWS V14.00,2013-02-14 18:00:00,
2013-02-14 13:15:00,45.3,11.6,29.94,SSW,193,0.0,6.9,25,0.00,,CLR,0.00,VWS V14.00,2013-02-14 18:15:00,
2013-02-14 13:30:00,45.7,11.9,29.94,SW,234,6.5,6.5,25,0.00,,CLR,0.00,VWS V14.00,2013-02-14 18:30:00,
2013-02-14 13:45:00,46.9,12.1,29.94,SW,235,0.0,8.3,24,0.00,,CLR,0.00,VWS V14.00,2013-02-14 18:45:00,
2013-02-14 14:00:00,46.4,11.6,29.94,WSW,249,0.0,8.7,24,0.00,,CLR,0.00,VWS V14.00,2013-02-14 19:00:00,
2013-02-14 14:15:00,45.9,12.0,29.94,SW,225,0.0,7.4,25,0.00,,CLR,0.00,VWS V14.00,2013-02-14 19:15:00,
2013-02-14 14:30:00,46.6,11.7,29.94,SW,223,0.0,5.1,24,0.00,,CLR,0.00,VWS V14.00,2013-02-14 19:30:00,
2013-02-14 14:45:00,47.3,12.4,29.91,SW,236,5.1,6.5,24,0.00,,CLR,0.00,VWS V14.00,2013-02-14 19:45:00,
2013-02-14 15:00:00,47.7,10.7,29.91,West,272,0.0,8.3,22,0.00,,CLR,0.00,VWS V14.00,2013-02-14 20:00:00,
2013-02-14 15:15:00,46.0,9.3,29.91,WSW,257,0.0,6.0,22,0.00,,CLR,0.00,VWS V14.00,2013-02-14 20:15:00,
2013-02-14 15:30:00,44.2,8.8,29.91,WNW,291,5.6,7.4,23,0.00,,CLR,0.00,VWS V14.00,2013-02-14 20:30:00,
2013-02-14 15:45:00,44.1,10.5,29.91,WNW,291,5.6,5.6,25,0.00,,CLR,0.00,VWS V14.00,2013-02-14 20:45:00,
2013-02-14 16:00:00,44.6,11.0,29.91,WNW,291,5.6,5.6,25,0.00,,SCT037,0.00,VWS V14.00,2013-02-14 21:00:00,
2013-02-14 16:15:00,44.6,11.0,29.91,WNW,291,5.6,5.6,25,0.00,,SCT037,0.00,VWS V14.00,2013-02-14 21:15:00,
2013-02-14 16:30:00,44.1,10.5,29.91,WNW,294,0.0,5.6,25,0.00,,SCT037,0.00,VWS V14.00,2013-02-14 21:30:00,
2013-02-14 16:45:00,43.7,10.2,29.91,WNW,294,0.0,0.0,25,0.00,,CLR,0.00,VWS V14.00,2013-02-14 21:45:00,
2013-02-14 17:00:00,43.3,9.9,29.91,WNW,294,0.0,0.0,25,0.00,,CLR,0.00,VWS V14.00,2013-02-14 22:00:00,
2013-02-14 17:15:00,43.5,10.0,29.91,WSW,252,0.0,0.0,25,0.00,,CLR,0.00,VWS V14.00,2013-02-14 22:15:00,
2013-02-14 17:30:00,42.8,9.4,29.91,SSE,152,0.0,6.5,25,0.00,,CLR,0.00,VWS V14.00,2013-02-14 22:30:00,
2013-02-14 17:45:00,42.4,10.0,29.91,SE,143,0.0,4.0,26,0.00,,CLR,0.00,VWS V14.00,2013-02-14 22:45:00,
2013-02-14 18:00:00,42.1,9.7,29.91,SW,219,0.0,5.1,26,0.00,,CLR,0.00,VWS V14.00,2013-02-14 23:00:00,
2013-02-14 18:15:00,41.5,10.9,29.91,SSE,149,2.7,9.8,28,0.00,,CLR,0.00,VWS V14.00,2013-02-14 23:15:00,
2013-02-14 18:30:00,41.4,10.7,29.91,ESE,110,0.0,7.8,28,0.00,,CLR,0.00,VWS V14.00,2013-02-14 23:30:00,
2013-02-14 18:45:00,41.2,10.6,29.91,South,179,0.0,6.0,28,0.00,,BKN110,0.00,VWS V14.00,2013-02-14 23:45:00,
2013-02-14 19:00:00,41.0,10.4,29.91,South,173,0.0,6.9,28,0.00,,BKN110,0.00,VWS V14.00,2013-02-15 00:00:00,
2013-02-14 19:15:00,40.5,10.7,29.94,SE,142,0.0,5.6,29,0.00,,BKN110,0.00,VWS V14.00,2013-02-15 00:15:00,
2013-02-14 19:30:00,40.6,10.9,29.94,SSE,152,0.0,8.9,29,0.00,,SCT110,0.00,VWS V14.00,2013-02-15 00:30:00,
2013-02-14 19:45:00,40.5,10.7,29.94,SE,134,0.0,7.4,29,0.00,,SCT110,0.00,VWS V14.00,2013-02-15 00:45:00,
2013-02-14 20:00:00,40.5,10.7,29.94,WSW,245,0.0,6.5,29,0.00,,SCT110,0.00,VWS V14.00,2013-02-15 01:00:00,
2013-02-14 20:15:00,40.3,10.6,29.94,SW,236,0.0,6.0,29,0.00,,SCT110,0.00,VWS V14.00,2013-02-15 01:15:00,
2013-02-14 20:30:00,39.7,10.1,29.94,SW,236,0.0,4.0,29,0.00,,SCT110,0.00,VWS V14.00,2013-02-15 01:30:00,
2013-02-14 20:45:00,39.4,9.8,29.94,SW,236,0.0,0.0,29,0.00,,OVC110,0.00,VWS V14.00,2013-02-15 01:45:00,
2013-02-14 21:00:00,39.2,10.4,29.94,SW,236,0.0,0.0,30,0.00,,OVC110,0.00,VWS V14.00,2013-02-15 02:00:00,
2013-02-14 21:15:00,39.7,10.9,29.94,WSW,241,0.0,3.6,30,0.00,,OVC110,0.00,VWS V14.00,2013-02-15 02:15:00,
2013-02-14 21:30:00,39.2,10.4,29.94,WSW,241,0.0,0.0,30,0.00,,OVC110,0.00,VWS V14.00,2013-02-15 02:30:00,
2013-02-14 21:45:00,40.1,11.2,29.94,WNW,296,0.0,6.0,30,0.00,,OVC110,0.00,VWS V14.00,2013-02-15 02:45:00,
2013-02-14 22:00:00,40.6,11.6,29.94,SSE,155,4.0,6.5,30,0.00,,CLR,0.00,VWS V14.00,2013-02-15 03:00:00,
2013-02-14 22:16:00,40.8,11.0,29.94,SSW,202,0.0,4.7,29,0.00,,CLR,0.00,VWS V14.00,2013-02-15 03:16:00,
2013-02-14 22:45:00,41.4,10.7,29.91,West,273,0.0,5.6,28,0.00,,OVC120,0.00,VWS V14.00,2013-02-15 03:45:00,
2013-02-14 23:00:00,41.5,10.9,29.91,West,276,0.0,3.6,28,0.00,,OVC120,0.00,VWS V14.00,2013-02-15 04:00:00,
2013-02-14 23:15:00,41.4,10.7,29.91,West,267,0.0,6.9,28,0.00,,OVC120,0.00,VWS V14.00,2013-02-15 04:15:00,
2013-02-14 23:30:00,38.7,9.2,29.91,West,267,0.0,0.0,29,0.00,,OVC120,0.00,VWS V14.00,2013-02-15 04:30:00,
2013-02-14 23:45:00,38.1,9.4,29.91,West,267,0.0,0.0,30,0.00,,OVC120,0.00,VWS V14.00,2013-02-15 04:45:00,